Time;durP1;ratioP1;P1;durP2;ratioP2;P2;SDS_P1;SDS_P2;PMS_P1;PMS_P2;Temp;Humidity;BMP_temperature;BMP_pressure;BME280_temperature;BME280_humidity;BME280_pressure;Samples;Min_cycle;Max_cycle;Signal;HPM_P1;HPM_P2
2022/03/24 00:02:13;;;;;;;6.57;5.10;;;;;;;;;;4961903;28;20561;-59
2022/03/24 00:04:41;;;;;;;9.23;5.50;;;;;;;;;;4961435;28;20629;-59
2022/03/24 00:07:08;;;;;;;8.17;5.07;;;;;;;;;;4960381;28;20222;-59
2022/03/24 00:09:35;;;;;;;7.03;5.03;;;;;;;;;;4961233;28;20203;-59
2022/03/24 00:12:02;;;;;;;7.30;4.90;;;;;;;;;;4961423;28;20266;-59
2022/03/24 00:14:29;;;;;;;9.13;5.70;;;;;;;;;;4961333;28;20557;-59
2022/03/24 00:16:56;;;;;;;12.47;5.50;;;;;;;;;;4960569;28;20261;-59
2022/03/24 00:19:23;;;;;;;7.97;5.30;;;;;;;;;;4959876;28;20206;-59
2022/03/24 00:21:52;;;;;;;9.10;5.23;;;;;;;;;;4959756;28;20211;-59
2022/03/24 00:24:20;;;;;;;9.97;6.10;;;;;;;;;;4963600;28;20666;-59
2022/03/24 00:26:47;;;;;;;6.50;4.63;;;;;;;;;;4959936;28;20232;-59
2022/03/24 00:29:14;;;;;;;8.50;5.13;;;;;;;;;;4959343;28;20297;-60
2022/03/24 00:31:41;;;;;;;9.17;5.83;;;;;;;;;;4960818;28;20223;-59
2022/03/24 00:34:09;;;;;;;9.53;5.73;;;;;;;;;;4960703;28;20206;-59
2022/03/24 00:36:36;;;;;;;8.20;4.87;;;;;;;;;;4962516;28;20206;-60
2022/03/24 00:39:05;;;;;;;6.93;5.53;;;;;;;;;;4962935;28;20206;-59
2022/03/24 00:41:32;;;;;;;9.43;5.77;;;;;;;;;;4953460;28;20218;-59
2022/03/24 00:44:01;;;;;;;12.40;5.83;;;;;;;;;;4963184;28;20664;-59
2022/03/24 00:46:31;;;;;;;6.87;4.97;;;;;;;;;;4964547;28;20234;-59
2022/03/24 00:48:59;;;;;;;7.73;5.50;;;;;;;;;;4964872;28;20205;-59
2022/03/24 00:51:26;;;;;;;9.47;5.73;;;;;;;;;;4959281;28;20273;-59
2022/03/24 00:53:53;;;;;;;8.07;5.43;;;;;;;;;;4962524;28;20202;-59
2022/03/24 00:56:23;;;;;;;9.37;6.00;;;;;;;;;;4961621;28;20237;-60
2022/03/24 00:58:50;;;;;;;12.67;6.13;;;;;;;;;;4963695;28;20351;-59
2022/03/24 01:01:17;;;;;;;8.97;5.93;;;;;;;;;;4962578;28;20207;-59
2022/03/24 01:03:45;;;;;;;6.83;5.20;;;;;;;;;;4966490;28;20211;-60
2022/03/24 01:06:16;;;;;;;8.77;5.60;;;;;;;;;;4963811;28;20271;-59
2022/03/24 01:08:44;;;;;;;9.63;5.20;;;;;;;;;;4966272;28;20329;-59
2022/03/24 01:11:11;;;;;;;11.83;5.60;;;;;;;;;;4964574;28;20206;-58
2022/03/24 01:13:40;;;;;;;8.90;5.83;;;;;;;;;;4965650;28;20210;-59
2022/03/24 01:16:09;;;;;;;11.33;5.83;;;;;;;;;;4959071;28;20216;-59
2022/03/24 01:18:37;;;;;;;7.30;5.23;;;;;;;;;;4963750;28;20205;-60
2022/03/24 01:21:04;;;;;;;7.77;5.67;;;;;;;;;;4963043;28;20743;-59
2022/03/24 01:23:32;;;;;;;8.20;5.67;;;;;;;;;;4964515;28;20212;-59
2022/03/24 01:26:00;;;;;;;9.17;6.07;;;;;;;;;;4963516;28;20571;-62
2022/03/24 01:28:27;;;;;;;12.23;5.47;;;;;;;;;;4961923;28;20756;-59
2022/03/24 01:30:56;;;;;;;8.97;5.50;;;;;;;;;;4962753;28;20581;-59
2022/03/24 01:33:23;;;;;;;8.53;5.40;;;;;;;;;;4962868;28;20206;-58
2022/03/24 01:35:50;;;;;;;10.10;5.57;;;;;;;;;;4962739;28;20670;-59
2022/03/24 01:38:17;;;;;;;9.20;6.07;;;;;;;;;;4968531;28;20293;-59
2022/03/24 01:40:44;;;;;;;8.53;5.57;;;;;;;;;;4962541;28;20217;-59
2022/03/24 01:43:12;;;;;;;10.03;5.57;;;;;;;;;;4965855;28;20211;-59
2022/03/24 01:45:39;;;;;;;9.07;5.57;;;;;;;;;;4962822;28;20203;-59
2022/03/24 01:48:08;;;;;;;11.53;6.30;;;;;;;;;;4961990;28;20235;-60
2022/03/24 01:50:35;;;;;;;10.17;5.13;;;;;;;;;;4961138;28;20670;-57
2022/03/24 01:53:04;;;;;;;9.83;5.13;;;;;;;;;;4965190;28;20279;-58
2022/03/24 01:55:33;;;;;;;9.23;5.37;;;;;;;;;;4962098;28;20215;-58
2022/03/24 01:58:00;;;;;;;7.90;5.10;;;;;;;;;;4964944;28;20231;-58
2022/03/24 02:00:28;;;;;;;8.10;5.33;;;;;;;;;;4965756;28;20225;-58
2022/03/24 02:02:57;;;;;;;11.27;5.20;;;;;;;;;;4963629;28;20222;-58
2022/03/24 02:05:25;;;;;;;10.77;5.57;;;;;;;;;;4961545;28;20203;-58
2022/03/24 02:07:52;;;;;;;9.10;5.93;;;;;;;;;;4963580;28;20222;-57
2022/03/24 02:10:19;;;;;;;11.83;5.93;;;;;;;;;;4962231;28;20279;-57
2022/03/24 02:12:46;;;;;;;9.03;5.43;;;;;;;;;;4963897;28;20206;-58
2022/03/24 02:15:15;;;;;;;10.07;6.60;;;;;;;;;;4963188;28;20203;-57
2022/03/24 02:17:42;;;;;;;8.43;5.63;;;;;;;;;;4964100;28;20574;-57
2022/03/24 02:20:10;;;;;;;8.90;5.57;;;;;;;;;;4963469;28;20207;-57
2022/03/24 02:22:38;;;;;;;7.43;5.80;;;;;;;;;;4962603;28;20214;-57
2022/03/24 02:25:07;;;;;;;15.37;5.73;;;;;;;;;;4962254;28;20274;-57
2022/03/24 02:27:34;;;;;;;8.00;5.23;;;;;;;;;;4964462;28;20250;-57
2022/03/24 02:30:03;;;;;;;8.70;5.70;;;;;;;;;;4963421;28;20307;-58
2022/03/24 02:32:31;;;;;;;8.40;5.33;;;;;;;;;;4961887;28;20215;-58
2022/03/24 02:34:59;;;;;;;7.90;4.70;;;;;;;;;;4967439;28;20234;-58
2022/03/24 02:37:28;;;;;;;11.20;6.20;;;;;;;;;;4962513;28;20207;-58
2022/03/24 02:39:57;;;;;;;10.90;5.60;;;;;;;;;;4966244;28;20243;-58
2022/03/24 02:42:25;;;;;;;7.23;5.10;;;;;;;;;;4962585;28;20210;-58
2022/03/24 02:44:54;;;;;;;8.90;5.43;;;;;;;;;;4966312;28;20213;-57
2022/03/24 02:47:21;;;;;;;7.23;4.87;;;;;;;;;;4961416;28;20324;-58
2022/03/24 02:49:48;;;;;;;8.63;5.13;;;;;;;;;;4963639;28;20203;-57
2022/03/24 02:52:16;;;;;;;11.20;5.63;;;;;;;;;;4965070;28;20218;-58
2022/03/24 02:54:43;;;;;;;10.07;5.67;;;;;;;;;;4971183;28;20210;-58
2022/03/24 02:57:12;;;;;;;7.60;5.13;;;;;;;;;;4967246;28;20223;-58
2022/03/24 02:59:39;;;;;;;9.67;5.27;;;;;;;;;;4971800;28;20700;-58
2022/03/24 03:02:08;;;;;;;8.30;4.93;;;;;;;;;;4971404;28;20265;-58
2022/03/24 03:04:35;;;;;;;7.63;4.77;;;;;;;;;;4971263;28;20213;-58
2022/03/24 03:07:03;;;;;;;7.13;4.93;;;;;;;;;;4971202;28;20206;-59
2022/03/24 03:09:30;;;;;;;9.23;5.67;;;;;;;;;;4971745;28;20220;-58
2022/03/24 03:11:58;;;;;;;9.23;5.13;;;;;;;;;;4969345;28;20213;-59
2022/03/24 03:14:29;;;;;;;8.47;5.30;;;;;;;;;;4971233;28;20239;-58
2022/03/24 03:16:56;;;;;;;9.80;5.57;;;;;;;;;;4971604;28;20787;-60
2022/03/24 03:19:23;;;;;;;6.33;5.00;;;;;;;;;;4969658;28;20671;-59
2022/03/24 03:21:50;;;;;;;9.00;5.77;;;;;;;;;;4969088;28;20703;-59
2022/03/24 03:24:18;;;;;;;7.53;5.23;;;;;;;;;;4969199;28;20208;-59
2022/03/24 03:26:46;;;;;;;12.07;5.67;;;;;;;;;;4968763;28;20206;-59
2022/03/24 03:29:13;;;;;;;7.87;5.33;;;;;;;;;;4970040;28;20237;-59
2022/03/24 03:31:41;;;;;;;13.37;5.27;;;;;;;;;;4969714;28;20206;-57
2022/03/24 03:34:10;;;;;;;8.03;4.97;;;;;;;;;;4970029;28;20205;-59
2022/03/24 03:36:38;;;;;;;7.00;5.17;;;;;;;;;;4969809;28;20206;-59
2022/03/24 03:39:06;;;;;;;9.43;5.00;;;;;;;;;;4969627;28;20285;-58
2022/03/24 03:41:35;;;;;;;8.90;5.60;;;;;;;;;;4966084;28;20682;-58
2022/03/24 03:44:02;;;;;;;12.33;5.33;;;;;;;;;;4968670;28;20426;-58
2022/03/24 03:46:29;;;;;;;7.80;4.73;;;;;;;;;;4968492;28;20212;-60
2022/03/24 03:48:58;;;;;;;7.40;4.87;;;;;;;;;;4969114;28;20237;-59
2022/03/24 03:51:27;;;;;;;9.03;4.97;;;;;;;;;;4965142;28;20222;-59
2022/03/24 03:53:54;;;;;;;11.20;4.43;;;;;;;;;;4969167;28;20258;-59
2022/03/24 03:56:21;;;;;;;10.37;5.17;;;;;;;;;;4968895;28;20222;-59
2022/03/24 03:58:48;;;;;;;7.63;4.80;;;;;;;;;;4968634;28;20359;-59
2022/03/24 04:01:15;;;;;;;7.43;5.03;;;;;;;;;;4968168;28;20301;-59
2022/03/24 04:03:43;;;;;;;6.40;5.20;;;;;;;;;;4969078;28;20210;-59
2022/03/24 04:06:12;;;;;;;6.20;4.53;;;;;;;;;;4968651;28;20206;-59
2022/03/24 04:08:40;;;;;;;8.57;4.80;;;;;;;;;;4967476;28;20701;-59
2022/03/24 04:11:09;;;;;;;7.33;5.17;;;;;;;;;;4966900;28;20210;-59
2022/03/24 04:13:37;;;;;;;8.73;5.80;;;;;;;;;;4969092;28;20284;-59
2022/03/24 04:16:05;;;;;;;8.33;4.97;;;;;;;;;;4969384;28;20304;-59
2022/03/24 04:18:32;;;;;;;7.60;5.03;;;;;;;;;;4970259;28;20414;-59
2022/03/24 04:20:59;;;;;;;6.47;4.70;;;;;;;;;;4969663;28;20202;-60
2022/03/24 04:23:28;;;;;;;7.60;5.10;;;;;;;;;;4970062;28;20239;-59
2022/03/24 04:25:55;;;;;;;9.47;5.97;;;;;;;;;;4965217;28;20214;-60
2022/03/24 04:28:22;;;;;;;9.13;5.47;;;;;;;;;;4969957;28;20225;-59
2022/03/24 04:30:49;;;;;;;9.73;5.77;;;;;;;;;;4969331;28;20219;-59
2022/03/24 04:33:16;;;;;;;9.73;5.93;;;;;;;;;;4968763;28;20210;-59
2022/03/24 04:35:44;;;;;;;10.27;5.53;;;;;;;;;;4968566;28;20233;-59
2022/03/24 04:38:14;;;;;;;8.03;5.23;;;;;;;;;;4969974;28;20672;-59
2022/03/24 04:40:42;;;;;;;7.20;4.90;;;;;;;;;;4969486;28;20211;-59
2022/03/24 04:43:09;;;;;;;9.37;5.40;;;;;;;;;;4970195;28;20213;-59
2022/03/24 04:45:37;;;;;;;9.37;6.00;;;;;;;;;;4969966;28;20652;-59
2022/03/24 04:48:04;;;;;;;9.53;4.63;;;;;;;;;;4969816;28;20279;-58
2022/03/24 04:50:31;;;;;;;7.10;5.07;;;;;;;;;;4969523;28;20313;-58
2022/03/24 04:52:59;;;;;;;8.10;5.10;;;;;;;;;;4970023;28;20202;-58
2022/03/24 04:55:26;;;;;;;7.10;4.80;;;;;;;;;;4960205;28;20264;-58
2022/03/24 04:57:54;;;;;;;12.10;5.20;;;;;;;;;;4969756;28;20292;-59
2022/03/24 05:00:22;;;;;;;13.13;5.30;;;;;;;;;;4968718;28;20557;-59
2022/03/24 05:02:49;;;;;;;8.83;4.83;;;;;;;;;;4967913;28;20221;-58
2022/03/24 05:05:16;;;;;;;8.07;4.90;;;;;;;;;;4969026;28;20822;-59
2022/03/24 05:07:43;;;;;;;8.83;5.03;;;;;;;;;;4966410;28;20261;-59
2022/03/24 05:10:11;;;;;;;9.30;5.23;;;;;;;;;;4969962;28;20506;-59
2022/03/24 05:12:40;;;;;;;8.17;5.33;;;;;;;;;;4970071;28;20227;-59
2022/03/24 05:15:09;;;;;;;5.17;4.47;;;;;;;;;;4969547;28;20249;-59
2022/03/24 05:17:37;;;;;;;7.03;4.80;;;;;;;;;;4960494;28;20254;-59
2022/03/24 05:20:04;;;;;;;10.40;5.30;;;;;;;;;;4964127;28;20202;-59
2022/03/24 05:22:31;;;;;;;9.53;4.27;;;;;;;;;;4968783;28;20345;-59
2022/03/24 05:24:58;;;;;;;9.30;5.13;;;;;;;;;;4970229;28;20775;-59
2022/03/24 05:27:25;;;;;;;7.97;4.50;;;;;;;;;;4968697;28;20214;-59
2022/03/24 05:29:52;;;;;;;6.70;4.47;;;;;;;;;;4969678;28;20237;-59
2022/03/24 05:32:21;;;;;;;6.23;4.37;;;;;;;;;;4969246;28;20248;-59
2022/03/24 05:34:48;;;;;;;9.10;4.40;;;;;;;;;;4969793;28;20203;-58
2022/03/24 05:37:15;;;;;;;4.13;3.70;;;;;;;;;;4969142;28;20330;-59
2022/03/24 05:39:43;;;;;;;5.80;4.50;;;;;;;;;;4970196;28;20301;-60
2022/03/24 05:42:10;;;;;;;6.37;4.20;;;;;;;;;;4969009;28;20210;-59
2022/03/24 05:44:37;;;;;;;5.70;4.00;;;;;;;;;;4969921;28;20668;-59
2022/03/24 05:47:04;;;;;;;8.00;4.93;;;;;;;;;;4972490;28;20207;-59
2022/03/24 05:49:33;;;;;;;8.13;5.33;;;;;;;;;;4972398;28;20451;-59
2022/03/24 05:52:00;;;;;;;8.57;5.17;;;;;;;;;;4968934;28;20218;-59
2022/03/24 05:54:27;;;;;;;7.57;4.53;;;;;;;;;;4972200;28;20717;-59
2022/03/24 05:56:54;;;;;;;7.83;4.83;;;;;;;;;;4973315;28;20672;-59
2022/03/24 05:59:21;;;;;;;10.37;5.30;;;;;;;;;;4964510;28;20238;-59
2022/03/24 06:01:48;;;;;;;7.60;4.93;;;;;;;;;;4972101;28;20698;-60
2022/03/24 06:04:15;;;;;;;8.40;5.47;;;;;;;;;;4972025;28;20206;-58
2022/03/24 06:06:45;;;;;;;10.33;5.43;;;;;;;;;;4969779;28;20629;-59
2022/03/24 06:09:12;;;;;;;7.67;4.93;;;;;;;;;;4968711;28;20229;-59
2022/03/24 06:11:39;;;;;;;7.67;4.73;;;;;;;;;;4967871;28;20276;-59
2022/03/24 06:14:10;;;;;;;8.50;4.90;;;;;;;;;;4963643;28;20685;-59
2022/03/24 06:16:38;;;;;;;8.20;5.17;;;;;;;;;;4968322;28;20209;-59
2022/03/24 06:19:05;;;;;;;12.87;6.77;;;;;;;;;;4971511;28;20210;-59
2022/03/24 06:21:32;;;;;;;7.80;5.17;;;;;;;;;;4971466;28;20257;-59
2022/03/24 06:24:00;;;;;;;9.77;5.07;;;;;;;;;;4971244;28;20224;-59
2022/03/24 06:26:29;;;;;;;6.93;5.80;;;;;;;;;;4971774;28;20217;-59
2022/03/24 06:28:56;;;;;;;9.10;6.37;;;;;;;;;;4953329;28;20298;-59
2022/03/24 06:31:23;;;;;;;8.27;5.33;;;;;;;;;;4971029;28;20213;-59
2022/03/24 06:33:50;;;;;;;8.80;5.40;;;;;;;;;;4971372;28;20217;-59
2022/03/24 06:36:17;;;;;;;9.67;5.93;;;;;;;;;;4971465;28;20212;-59
2022/03/24 06:38:44;;;;;;;13.27;7.13;;;;;;;;;;4971608;28;20206;-60
2022/03/24 06:41:14;;;;;;;9.57;5.87;;;;;;;;;;4971292;28;20206;-59
2022/03/24 06:43:41;;;;;;;11.53;5.93;;;;;;;;;;4971496;28;20206;-59
2022/03/24 06:46:08;;;;;;;10.00;6.17;;;;;;;;;;4969828;28;20216;-58
2022/03/24 06:48:35;;;;;;;9.00;5.97;;;;;;;;;;4970801;28;20226;-58
2022/03/24 06:51:03;;;;;;;9.97;5.83;;;;;;;;;;4963250;28;20200;-57
2022/03/24 06:53:30;;;;;;;11.90;6.83;;;;;;;;;;4965821;28;20760;-57
2022/03/24 06:55:57;;;;;;;12.80;6.77;;;;;;;;;;4965170;28;20688;-58
2022/03/24 06:58:25;;;;;;;14.80;5.87;;;;;;;;;;4956557;28;20820;-58
2022/03/24 07:00:52;;;;;;;10.33;6.73;;;;;;;;;;4971707;28;20198;-57
2022/03/24 07:03:19;;;;;;;11.67;6.47;;;;;;;;;;4971427;28;20245;-58
2022/03/24 07:05:46;;;;;;;11.63;6.20;;;;;;;;;;4971232;28;20293;-57
2022/03/24 07:08:13;;;;;;;11.83;6.17;;;;;;;;;;4959620;28;20211;-57
2022/03/24 07:10:41;;;;;;;8.20;5.80;;;;;;;;;;4970973;28;20851;-57
2022/03/24 07:13:08;;;;;;;9.67;6.27;;;;;;;;;;4971609;28;20217;-57
2022/03/24 07:15:36;;;;;;;11.20;6.77;;;;;;;;;;4970012;28;20221;-57
2022/03/24 07:18:03;;;;;;;14.90;7.07;;;;;;;;;;4970848;28;20209;-58
2022/03/24 07:20:30;;;;;;;11.17;6.87;;;;;;;;;;4971014;28;20268;-58
2022/03/24 07:23:00;;;;;;;12.87;7.43;;;;;;;;;;4971125;28;20218;-58
2022/03/24 07:25:28;;;;;;;18.63;8.00;;;;;;;;;;4971392;28;20748;-59
2022/03/24 07:27:55;;;;;;;15.60;7.80;;;;;;;;;;4971145;28;20207;-59
2022/03/24 07:30:22;;;;;;;10.67;6.93;;;;;;;;;;4968819;28;20239;-58
2022/03/24 07:32:52;;;;;;;13.10;6.37;;;;;;;;;;4962781;28;20210;-58
2022/03/24 07:35:19;;;;;;;10.33;6.90;;;;;;;;;;4963279;28;20557;-58
2022/03/24 07:37:48;;;;;;;10.03;5.93;;;;;;;;;;4970506;28;20210;-58
2022/03/24 07:40:18;;;;;;;11.07;6.30;;;;;;;;;;4959690;28;20250;-58
2022/03/24 07:42:45;;;;;;;8.00;6.23;;;;;;;;;;4951654;28;20238;-58
2022/03/24 07:45:13;;;;;;;13.70;6.83;;;;;;;;;;4958959;28;20219;-59
2022/03/24 07:48:01;;;;;;;8.93;5.83;;;;;;;;;;4960001;28;20301;-58
2022/03/24 07:50:29;;;;;;;11.40;6.70;;;;;;;;;;4965165;28;20719;-58
2022/03/24 07:52:56;;;;;;;14.87;7.07;;;;;;;;;;4962797;28;20222;-58
2022/03/24 07:55:23;;;;;;;11.33;6.93;;;;;;;;;;4966500;28;20206;-59
2022/03/24 07:57:50;;;;;;;12.37;6.63;;;;;;;;;;4970014;28;20250;-57
2022/03/24 08:00:17;;;;;;;13.07;7.23;;;;;;;;;;4969894;28;20209;-58
2022/03/24 08:02:45;;;;;;;10.70;6.10;;;;;;;;;;4969092;28;20637;-60
2022/03/24 08:05:12;;;;;;;11.77;6.23;;;;;;;;;;4970680;28;20214;-60
2022/03/24 08:07:40;;;;;;;10.77;6.67;;;;;;;;;;4969237;28;20692;-60
2022/03/24 08:10:08;;;;;;;10.07;5.77;;;;;;;;;;4967568;28;20285;-59
2022/03/24 08:12:35;;;;;;;13.00;7.10;;;;;;;;;;4968566;28;21118;-59
2022/03/24 08:15:03;;;;;;;10.13;6.77;;;;;;;;;;4968211;28;20272;-59
2022/03/24 08:17:30;;;;;;;11.40;7.00;;;;;;;;;;4967854;28;20687;-59
2022/03/24 08:19:57;;;;;;;15.43;6.67;;;;;;;;;;4960476;28;20229;-59
2022/03/24 08:22:24;;;;;;;12.67;6.60;;;;;;;;;;4970503;28;20213;-62
2022/03/24 08:24:53;;;;;;;12.63;7.10;;;;;;;;;;4970174;28;20226;-59
2022/03/24 08:27:20;;;;;;;11.30;6.53;;;;;;;;;;4969917;28;20209;-58
2022/03/24 08:29:47;;;;;;;11.73;6.33;;;;;;;;;;4969388;28;20233;-57
2022/03/24 08:32:14;;;;;;;10.33;6.80;;;;;;;;;;4969556;28;20214;-60
2022/03/24 08:34:42;;;;;;;14.83;6.90;;;;;;;;;;4970318;28;20210;-58
2022/03/24 08:37:09;;;;;;;12.90;7.57;;;;;;;;;;4970077;28;20293;-58
2022/03/24 08:39:36;;;;;;;11.93;7.43;;;;;;;;;;4969811;28;20297;-57
2022/03/24 08:42:05;;;;;;;12.00;6.27;;;;;;;;;;4969828;28;20214;-58
2022/03/24 08:44:32;;;;;;;12.20;6.53;;;;;;;;;;4967232;28;20336;-57
2022/03/24 08:46:59;;;;;;;12.63;7.20;;;;;;;;;;4966049;28;20209;-58
2022/03/24 08:49:26;;;;;;;19.23;8.10;;;;;;;;;;4964043;28;20661;-60
2022/03/24 08:51:53;;;;;;;14.87;8.13;;;;;;;;;;4950413;29;20221;-59
2022/03/24 08:54:20;;;;;;;13.33;7.67;;;;;;;;;;4966553;28;20210;-59
2022/03/24 08:56:47;;;;;;;14.80;8.13;;;;;;;;;;4967199;28;20688;-59
2022/03/24 08:59:16;;;;;;;10.30;6.53;;;;;;;;;;4967943;28;20230;-59
2022/03/24 09:01:43;;;;;;;9.93;7.03;;;;;;;;;;4969163;28;20206;-59
2022/03/24 09:04:11;;;;;;;11.13;7.43;;;;;;;;;;4968201;28;20217;-60
2022/03/24 09:06:38;;;;;;;13.73;8.07;;;;;;;;;;4966245;28;20362;-60
2022/03/24 09:09:05;;;;;;;15.13;6.83;;;;;;;;;;4968748;28;20240;-58
2022/03/24 09:11:32;;;;;;;14.00;8.10;;;;;;;;;;4965105;28;20206;-58
2022/03/24 09:13:59;;;;;;;13.90;7.93;;;;;;;;;;4968709;28;20202;-58
2022/03/24 09:16:27;;;;;;;17.90;8.43;;;;;;;;;;4968184;28;20233;-58
2022/03/24 09:18:54;;;;;;;14.20;8.27;;;;;;;;;;4963413;28;20681;-58
2022/03/24 09:21:22;;;;;;;16.10;9.00;;;;;;;;;;4972721;28;20206;-58
2022/03/24 09:23:49;;;;;;;18.40;9.18;;;;;;;;;;4963299;28;20207;-59
2022/03/24 09:26:16;;;;;;;18.08;8.88;;;;;;;;;;4967029;28;20218;-59
2022/03/24 09:28:43;;;;;;;15.40;8.95;;;;;;;;;;4971238;28;20210;-58
2022/03/24 09:31:10;;;;;;;14.82;8.38;;;;;;;;;;4971962;28;20230;-57
2022/03/24 09:33:38;;;;;;;16.60;8.93;;;;;;;;;;4971598;28;20684;-58
2022/03/24 09:36:06;;;;;;;19.35;8.98;;;;;;;;;;4972001;28;20207;-59
2022/03/24 09:38:33;;;;;;;14.70;8.68;;;;;;;;;;4970014;28;20214;-59
2022/03/24 09:41:00;;;;;;;14.43;8.90;;;;;;;;;;4969216;28;20240;-58
2022/03/24 09:43:27;;;;;;;12.73;8.68;;;;;;;;;;4970029;28;20222;-58
2022/03/24 09:45:54;;;;;;;21.45;9.65;;;;;;;;;;4953060;29;20277;-59
2022/03/24 09:48:21;;;;;;;18.15;9.98;;;;;;;;;;4970668;28;20273;-61
2022/03/24 09:50:50;;;;;;;16.05;9.48;;;;;;;;;;4972358;28;20281;-63
2022/03/24 09:53:18;;;;;;;14.77;9.18;;;;;;;;;;4972081;28;20248;-59
2022/03/24 09:55:45;;;;;;;16.23;9.80;;;;;;;;;;4972138;28;20214;-60
2022/03/24 09:58:13;;;;;;;18.40;10.63;;;;;;;;;;4971420;28;20242;-60
2022/03/24 10:00:40;;;;;;;16.92;9.93;;;;;;;;;;4966995;28;20203;-59
2022/03/24 10:03:07;;;;;;;19.85;10.48;;;;;;;;;;4971039;28;20210;-60
2022/03/24 10:05:34;;;;;;;15.65;8.75;;;;;;;;;;4971093;28;20218;-59
2022/03/24 10:08:06;;;;;;;19.92;9.30;;;;;;;;;;4971888;28;20264;-60
2022/03/24 10:10:34;;;;;;;16.90;9.45;;;;;;;;;;4971917;28;20246;-59
2022/03/24 10:13:01;;;;;;;17.17;10.65;;;;;;;;;;4971999;28;20565;-59
2022/03/24 10:15:28;;;;;;;19.52;10.65;;;;;;;;;;4971190;28;20210;-59
2022/03/24 10:17:57;;;;;;;16.58;9.77;;;;;;;;;;4972014;28;20217;-59
2022/03/24 10:20:24;;;;;;;16.85;10.60;;;;;;;;;;4969994;28;20211;-59
2022/03/24 10:22:55;;;;;;;16.85;9.45;;;;;;;;;;4971263;28;20214;-59
2022/03/24 10:25:25;;;;;;;18.85;10.80;;;;;;;;;;4963500;28;20199;-59
2022/03/24 10:27:53;;;;;;;18.33;10.35;;;;;;;;;;4951923;28;20203;-58
2022/03/24 10:30:20;;;;;;;19.17;10.98;;;;;;;;;;4949813;29;20278;-58
2022/03/24 10:32:55;;;;;;;17.92;11.05;;;;;;;;;;4964454;28;20286;-58
2022/03/24 10:35:23;;;;;;;21.35;10.98;;;;;;;;;;4969773;28;20658;-59
2022/03/24 10:37:50;;;;;;;18.58;10.15;;;;;;;;;;4945552;28;20838;-61
2022/03/24 10:40:17;;;;;;;20.38;10.77;;;;;;;;;;4956062;28;20878;-59
2022/03/24 10:42:46;;;;;;;20.85;10.68;;;;;;;;;;4963332;28;20276;-59
2022/03/24 10:45:14;;;;;;;18.02;11.10;;;;;;;;;;4959633;28;20215;-59
2022/03/24 10:47:42;;;;;;;18.80;10.43;;;;;;;;;;4961498;28;20214;-59
2022/03/24 10:50:24;;;;;;;20.88;11.40;;;;;;;;;;4960877;28;20253;-59
2022/03/24 10:52:53;;;;;;;17.75;10.45;;;;;;;;;;4965387;28;20293;-59
2022/03/24 10:55:26;;;;;;;18.67;10.00;;;;;;;;;;4967056;28;20213;-59
2022/03/24 10:57:55;;;;;;;20.60;11.10;;;;;;;;;;4967141;28;20333;-59
2022/03/24 11:00:23;;;;;;;18.35;11.52;;;;;;;;;;4967023;28;20214;-58
2022/03/24 11:02:50;;;;;;;18.55;11.65;;;;;;;;;;4963035;28;20270;-59
2022/03/24 11:05:17;;;;;;;22.77;12.52;;;;;;;;;;4958145;28;20207;-57
2022/03/24 11:07:51;;;;;;;20.85;11.82;;;;;;;;;;4964689;28;20210;-60
2022/03/24 11:10:18;;;;;;;21.60;12.10;;;;;;;;;;4960996;28;20332;-59
2022/03/24 11:12:45;;;;;;;18.48;11.10;;;;;;;;;;4966508;28;20264;-58
2022/03/24 11:15:16;;;;;;;20.35;12.25;;;;;;;;;;4967291;28;20676;-59
2022/03/24 11:17:43;;;;;;;23.70;12.77;;;;;;;;;;4958075;28;20214;-58
2022/03/24 11:20:16;;;;;;;20.35;11.38;;;;;;;;;;4963880;28;20677;-58
2022/03/24 11:22:45;;;;;;;22.13;12.55;;;;;;;;;;4952870;28;20223;-59
2022/03/24 11:25:12;;;;;;;25.08;12.77;;;;;;;;;;4948354;28;20724;-59
2022/03/24 11:27:39;;;;;;;23.10;12.82;;;;;;;;;;4956837;28;20237;-59
2022/03/24 11:30:07;;;;;;;19.75;12.15;;;;;;;;;;4966564;28;20234;-59
2022/03/24 11:32:37;;;;;;;30.33;13.45;;;;;;;;;;4963882;28;20218;-60
2022/03/24 11:35:04;;;;;;;28.35;13.30;;;;;;;;;;4951200;28;20225;-60
2022/03/24 11:37:31;;;;;;;25.25;13.27;;;;;;;;;;4965120;28;20523;-59
2022/03/24 11:40:09;;;;;;;24.15;13.75;;;;;;;;;;4965419;28;20210;-59
2022/03/24 11:42:38;;;;;;;24.58;13.88;;;;;;;;;;4963235;28;20209;-59
2022/03/24 11:45:10;;;;;;;33.22;14.13;;;;;;;;;;4965595;28;20685;-59
2022/03/24 11:47:52;;;;;;;25.80;14.68;;;;;;;;;;4953236;28;20589;-58
2022/03/24 11:50:19;;;;;;;27.52;13.95;;;;;;;;;;4946443;29;20237;-58
2022/03/24 11:52:46;;;;;;;23.42;13.50;;;;;;;;;;4946788;29;20245;-59
2022/03/24 11:55:17;;;;;;;22.67;12.70;;;;;;;;;;4964455;28;20733;-59
2022/03/24 11:57:44;;;;;;;23.27;13.45;;;;;;;;;;4965249;28;20245;-58
2022/03/24 12:00:30;;;;;;;21.83;12.32;;;;;;;;;;4965371;28;20637;-59
2022/03/24 12:03:00;;;;;;;21.73;13.13;;;;;;;;;;4965619;28;20217;-60
2022/03/24 12:05:48;;;;;;;23.42;12.50;;;;;;;;;;4963447;28;20223;-59
2022/03/24 12:08:15;;;;;;;23.17;11.55;;;;;;;;;;4959941;28;20434;-59
2022/03/24 12:10:42;;;;;;;24.35;12.70;;;;;;;;;;4965896;28;20230;-59
2022/03/24 12:13:21;;;;;;;21.88;12.25;;;;;;;;;;4947928;28;20222;-59
2022/03/24 12:16:04;;;;;;;21.05;11.23;;;;;;;;;;4963909;28;20268;-59
2022/03/24 12:18:42;;;;;;;20.00;11.02;;;;;;;;;;4964991;28;20215;-58
2022/03/24 12:21:09;;;;;;;19.95;11.63;;;;;;;;;;4966407;28;20292;-59
2022/03/24 12:23:51;;;;;;;24.00;11.73;;;;;;;;;;4965818;28;20281;-60
2022/03/24 12:26:18;;;;;;;17.17;10.15;;;;;;;;;;4964493;28;20221;-59
2022/03/24 12:28:45;;;;;;;18.20;10.30;;;;;;;;;;4965264;28;20264;-59
2022/03/24 12:31:12;;;;;;;14.65;9.70;;;;;;;;;;4965640;28;20341;-59
2022/03/24 12:33:43;;;;;;;14.57;9.68;;;;;;;;;;4965764;28;20224;-59
2022/03/24 12:36:13;;;;;;;18.58;10.18;;;;;;;;;;4966053;28;20225;-58
2022/03/24 12:38:43;;;;;;;18.02;9.80;;;;;;;;;;4966171;28;20215;-58
2022/03/24 12:41:26;;;;;;;16.45;9.82;;;;;;;;;;4965789;28;20253;-59
2022/03/24 12:44:11;;;;;;;18.95;10.60;;;;;;;;;;4965640;28;20874;-59
2022/03/24 12:46:40;;;;;;;16.27;9.32;;;;;;;;;;4965279;28;20205;-58
2022/03/24 12:49:10;;;;;;;19.27;10.82;;;;;;;;;;4965574;28;20214;-59
2022/03/24 12:51:50;;;;;;;18.98;9.85;;;;;;;;;;4965487;28;20726;-59
2022/03/24 12:54:19;;;;;;;20.33;10.10;;;;;;;;;;4964786;28;20217;-59
2022/03/24 12:56:46;;;;;;;18.60;10.32;;;;;;;;;;4968718;28;20391;-60
2022/03/24 12:59:14;;;;;;;17.80;10.50;;;;;;;;;;4968786;28;20238;-59
2022/03/24 13:01:41;;;;;;;16.55;10.57;;;;;;;;;;4955760;28;20743;-59
2022/03/24 13:04:10;;;;;;;19.50;9.93;;;;;;;;;;4960062;28;20229;-59
2022/03/24 13:06:38;;;;;;;19.33;9.00;;;;;;;;;;4956145;28;20221;-59
2022/03/24 13:09:12;;;;;;;13.68;8.35;;;;;;;;;;4963082;28;20213;-59
2022/03/24 13:11:49;;;;;;;14.25;8.30;;;;;;;;;;4968974;28;20328;-58
2022/03/24 13:14:19;;;;;;;12.90;8.57;;;;;;;;;;4969437;28;20576;-58
2022/03/24 13:16:59;;;;;;;14.93;8.43;;;;;;;;;;4968634;28;20214;-58
2022/03/24 13:19:28;;;;;;;14.93;7.82;;;;;;;;;;4965342;28;20310;-59
2022/03/24 13:21:55;;;;;;;12.80;7.47;;;;;;;;;;4961619;28;20210;-59
2022/03/24 13:24:22;;;;;;;21.33;10.02;;;;;;;;;;4962596;28;20854;-59
2022/03/24 13:26:59;;;;;;;19.52;9.40;;;;;;;;;;4959679;28;20680;-60
2022/03/24 13:29:39;;;;;;;18.25;8.48;;;;;;;;;;4949533;29;20685;-59
2022/03/24 13:32:10;;;;;;;12.40;8.07;;;;;;;;;;4949420;29;20257;-60
2022/03/24 13:34:39;;;;;;;17.70;9.38;;;;;;;;;;4957740;28;20211;-58
2022/03/24 13:37:13;;;;;;;18.70;9.73;;;;;;;;;;4959368;28;20211;-60
2022/03/24 13:39:40;;;;;;;17.85;9.45;;;;;;;;;;4950503;28;20238;-59
2022/03/24 13:42:08;;;;;;;15.55;8.35;;;;;;;;;;4957109;28;20222;-60
2022/03/24 13:44:36;;;;;;;13.88;8.77;;;;;;;;;;4964552;28;20294;-59
2022/03/24 13:47:04;;;;;;;15.23;8.98;;;;;;;;;;4955212;28;20211;-59
2022/03/24 13:49:31;;;;;;;12.88;8.60;;;;;;;;;;4952242;28;20218;-59
2022/03/24 13:52:00;;;;;;;17.52;9.85;;;;;;;;;;4967629;28;20230;-59
2022/03/24 13:54:27;;;;;;;16.95;9.30;;;;;;;;;;4967719;28;20585;-59
2022/03/24 13:56:54;;;;;;;15.55;9.57;;;;;;;;;;4951763;28;20242;-60
2022/03/24 13:59:26;;;;;;;15.82;9.82;;;;;;;;;;4948180;29;20282;-59
2022/03/24 14:01:57;;;;;;;14.98;9.48;;;;;;;;;;4949912;28;20306;-59
2022/03/24 14:04:24;;;;;;;17.90;10.50;;;;;;;;;;4958279;28;20385;-60
2022/03/24 14:07:06;;;;;;;17.58;9.95;;;;;;;;;;4956441;28;20222;-58
2022/03/24 14:09:36;;;;;;;15.88;9.93;;;;;;;;;;4966764;28;20242;-59
2022/03/24 14:12:04;;;;;;;17.88;10.20;;;;;;;;;;4967310;28;20736;-59
2022/03/24 14:14:31;;;;;;;16.83;9.77;;;;;;;;;;4966998;28;20221;-59
2022/03/24 14:16:58;;;;;;;17.38;10.77;;;;;;;;;;4967411;28;20726;-59
2022/03/24 14:19:26;;;;;;;19.15;11.07;;;;;;;;;;4968272;28;20214;-58
2022/03/24 14:21:55;;;;;;;18.83;10.55;;;;;;;;;;4967500;28;20213;-59
2022/03/24 14:24:31;;;;;;;19.75;10.52;;;;;;;;;;4967842;28;20222;-59
2022/03/24 14:26:58;;;;;;;21.05;10.88;;;;;;;;;;4967032;28;20233;-58
2022/03/24 14:29:26;;;;;;;17.45;10.50;;;;;;;;;;4949828;28;20309;-59
2022/03/24 14:32:08;;;;;;;19.95;11.55;;;;;;;;;;4966822;28;20612;-59
2022/03/24 14:34:37;;;;;;;17.73;10.77;;;;;;;;;;4966849;28;20241;-58
2022/03/24 14:37:11;;;;;;;20.95;11.43;;;;;;;;;;4966534;28;20218;-59
2022/03/24 14:39:47;;;;;;;21.48;11.20;;;;;;;;;;4966918;28;20637;-59
2022/03/24 14:42:14;;;;;;;20.92;10.88;;;;;;;;;;4964195;28;20635;-59